Time;durP1;ratioP1;P1;durP2;ratioP2;P2;SDS_P1;SDS_P2;PMS_P1;PMS_P2;Temp;Humidity;BMP_temperature;BMP_pressure;BME280_temperature;BME280_humidity;BME280_pressure;Samples;Min_cycle;Max_cycle;Signal;HPM_P1;HPM_P2
2023/10/23 00:01:41;;;;;;;2.08;1.02;;;10.10;98.50;;;;;;4747253;30;20520;-83
2023/10/23 00:04:09;;;;;;;2.28;1.13;;;10.00;98.50;;;;;;4763443;30;20493;-83
2023/10/23 00:06:36;;;;;;;3.22;1.23;;;10.00;98.60;;;;;;4761365;30;20083;-82
2023/10/23 00:09:04;;;;;;;2.60;1.30;;;9.90;98.60;;;;;;4783794;29;20044;-82
2023/10/23 00:11:31;;;;;;;3.30;1.50;;;9.90;98.60;;;;;;4758978;30;20410;-82
2023/10/23 00:13:59;;;;;;;2.55;1.35;;;9.80;98.70;;;;;;4755620;30;20088;-83
2023/10/23 00:16:26;;;;;;;2.78;1.40;;;9.80;98.70;;;;;;4757098;30;20049;-83
2023/10/23 00:18:53;;;;;;;3.75;1.40;;;9.70;98.70;;;;;;4734619;30;20088;-83
2023/10/23 00:21:20;;;;;;;2.67;1.17;;;9.70;98.70;;;;;;4766796;30;20430;-83
2023/10/23 00:23:49;;;;;;;4.15;1.45;;;9.70;98.80;;;;;;4753647;30;20151;-83
2023/10/23 00:26:17;;;;;;;2.65;1.27;;;9.70;98.80;;;;;;4782241;29;20086;-83
2023/10/23 00:28:49;;;;;;;2.50;1.30;;;9.60;98.80;;;;;;4741103;30;20510;-84
2023/10/23 00:31:17;;;;;;;2.47;1.02;;;9.60;98.80;;;;;;4750201;30;20082;-83
2023/10/23 00:33:44;;;;;;;2.63;1.17;;;9.60;98.80;;;;;;4753206;30;20056;-83
2023/10/23 00:36:11;;;;;;;2.70;1.17;;;9.60;98.80;;;;;;4749793;30;20056;-83
2023/10/23 00:38:38;;;;;;;3.83;1.40;;;9.60;98.80;;;;;;4734856;30;20056;-83
2023/10/23 00:41:05;;;;;;;3.42;1.80;;;9.60;98.80;;;;;;4739128;30;20045;-83
2023/10/23 00:43:34;;;;;;;2.08;0.80;;;9.50;98.80;;;;;;4761126;30;20049;-83
2023/10/23 00:46:08;;;;;;;2.03;1.02;;;9.50;98.80;;;;;;4760712;29;20059;-83
2023/10/23 00:48:35;;;;;;;2.65;1.42;;;9.50;98.80;;;;;;4760546;29;20060;-82
2023/10/23 00:51:03;;;;;;;2.50;1.42;;;9.40;98.80;;;;;;4753927;30;20052;-83
2023/10/23 00:53:37;;;;;;;2.67;1.20;;;9.40;98.80;;;;;;4739153;30;20056;-83
2023/10/23 00:56:06;;;;;;;3.17;1.52;;;9.40;98.80;;;;;;4727485;30;20055;-83
2023/10/23 00:58:41;;;;;;;3.08;1.40;;;9.40;98.90;;;;;;4750307;30;20059;-83
2023/10/23 01:01:12;;;;;;;2.63;1.27;;;9.30;98.90;;;;;;4749419;30;20419;-83
2023/10/23 01:03:41;;;;;;;2.65;1.48;;;9.30;98.90;;;;;;4761987;30;20059;-82
2023/10/23 01:06:09;;;;;;;3.17;1.35;;;9.30;98.90;;;;;;4734374;30;20060;-83
2023/10/23 01:08:37;;;;;;;2.53;1.20;;;9.30;98.90;;;;;;4749002;30;20052;-82
2023/10/23 01:11:04;;;;;;;3.55;1.50;;;9.30;98.90;;;;;;4733778;30;20056;-83
2023/10/23 01:13:31;;;;;;;2.88;1.13;;;9.30;98.90;;;;;;4758424;30;20051;-83
2023/10/23 01:15:58;;;;;;;3.03;1.60;;;9.20;98.90;;;;;;4745237;30;20060;-83
2023/10/23 01:18:26;;;;;;;3.15;1.73;;;9.20;98.90;;;;;;4772480;30;20047;-84
2023/10/23 01:20:53;;;;;;;2.50;1.48;;;9.20;98.90;;;;;;4746413;30;20052;-83
2023/10/23 01:23:28;;;;;;;2.55;1.38;;;9.20;99.00;;;;;;4749067;30;20052;-83
2023/10/23 01:25:55;;;;;;;2.53;1.33;;;9.20;98.90;;;;;;4751466;30;20051;-83
2023/10/23 01:28:22;;;;;;;3.17;1.42;;;9.20;98.90;;;;;;4750488;30;20084;-82
2023/10/23 01:30:49;;;;;;;2.83;1.40;;;9.20;98.90;;;;;;4750100;30;20422;-83
2023/10/23 01:33:16;;;;;;;3.42;1.75;;;9.20;98.90;;;;;;4744162;30;20060;-83
2023/10/23 01:35:46;;;;;;;2.88;1.33;;;9.20;98.90;;;;;;4749135;30;20052;-83
2023/10/23 01:38:16;;;;;;;2.95;1.52;;;9.30;98.90;;;;;;4734035;30;20056;-83
2023/10/23 01:40:44;;;;;;;4.85;2.03;;;9.30;98.80;;;;;;4737441;30;20494;-83
2023/10/23 01:43:11;;;;;;;2.78;1.17;;;9.40;98.90;;;;;;4739039;30;20052;-83
2023/10/23 01:45:39;;;;;;;4.00;1.63;;;9.50;98.70;;;;;;4751368;30;20136;-83
2023/10/23 01:48:07;;;;;;;3.30;1.40;;;9.60;98.70;;;;;;4738816;30;20059;-83
2023/10/23 01:50:34;;;;;;;2.35;1.30;;;9.60;98.60;;;;;;4739152;30;20056;-83
2023/10/23 01:53:02;;;;;;;2.70;1.42;;;9.70;98.60;;;;;;4757452;30;20060;-83
2023/10/23 01:55:29;;;;;;;2.30;1.13;;;9.70;98.50;;;;;;4763821;30;20059;-83
2023/10/23 01:57:57;;;;;;;2.63;1.17;;;9.80;98.40;;;;;;4739200;30;20053;-83
2023/10/23 02:00:25;;;;;;;2.50;1.40;;;9.80;98.40;;;;;;4738651;30;20525;-82
2023/10/23 02:02:53;;;;;;;3.45;1.40;;;9.90;98.40;;;;;;4754852;30;20134;-82
2023/10/23 02:05:20;;;;;;;2.92;1.50;;;9.90;98.40;;;;;;4749049;30;20049;-82
2023/10/23 02:07:48;;;;;;;3.92;1.35;;;9.90;98.40;;;;;;4756631;30;20051;-82
2023/10/23 02:10:15;;;;;;;2.78;1.38;;;10.00;98.40;;;;;;4760253;30;20136;-82
2023/10/23 02:12:42;;;;;;;2.58;1.20;;;10.00;98.40;;;;;;4738427;30;20507;-82
2023/10/23 02:15:13;;;;;;;3.15;1.27;;;10.00;98.40;;;;;;4744154;30;20534;-82
2023/10/23 02:17:40;;;;;;;3.20;1.50;;;10.00;98.30;;;;;;4712160;30;20540;-82
2023/10/23 02:20:08;;;;;;;3.38;1.67;;;10.10;98.40;;;;;;4730505;30;20056;-82
2023/10/23 02:22:36;;;;;;;2.15;1.27;;;10.10;98.30;;;;;;4726855;30;20153;-82
2023/10/23 02:25:03;;;;;;;2.97;1.20;;;10.10;98.30;;;;;;4742099;30;20056;-82
2023/10/23 02:27:30;;;;;;;2.70;1.30;;;10.20;98.30;;;;;;4735534;30;20052;-83
2023/10/23 02:29:58;;;;;;;2.88;1.13;;;10.20;98.30;;;;;;4739404;30;20052;-83
2023/10/23 02:32:25;;;;;;;3.08;1.52;;;10.20;98.20;;;;;;4732345;30;20057;-82
2023/10/23 02:34:52;;;;;;;3.05;1.48;;;10.30;98.20;;;;;;4730620;30;20140;-82
2023/10/23 02:37:19;;;;;;;2.90;1.45;;;10.30;98.20;;;;;;4745812;30;20175;-83
2023/10/23 02:39:46;;;;;;;3.33;1.25;;;10.30;98.20;;;;;;4757528;30;20523;-82
2023/10/23 02:42:14;;;;;;;3.58;1.65;;;10.30;98.20;;;;;;4734083;30;20059;-83
2023/10/23 02:44:41;;;;;;;3.58;1.48;;;10.30;98.20;;;;;;4734238;30;20423;-82
2023/10/23 02:47:08;;;;;;;3.42;1.50;;;10.30;98.20;;;;;;4735940;30;20080;-83
2023/10/23 02:49:35;;;;;;;4.30;1.52;;;10.30;98.20;;;;;;4716855;30;20522;-82
2023/10/23 02:52:03;;;;;;;3.13;1.52;;;10.30;98.20;;;;;;4744514;30;20072;-83
2023/10/23 02:54:30;;;;;;;3.15;1.30;;;10.30;98.30;;;;;;4705148;30;20068;-82
2023/10/23 02:56:57;;;;;;;3.50;1.50;;;10.30;98.30;;;;;;4735781;30;20052;-83
2023/10/23 02:59:24;;;;;;;3.42;1.42;;;10.30;98.30;;;;;;4734591;30;20048;-82
2023/10/23 03:01:51;;;;;;;3.53;1.58;;;10.20;98.40;;;;;;4717058;30;20060;-83
2023/10/23 03:04:19;;;;;;;3.35;1.55;;;10.20;98.40;;;;;;4742181;30;20472;-83
2023/10/23 03:06:46;;;;;;;3.70;1.50;;;10.20;98.40;;;;;;4719923;30;20056;-83
2023/10/23 03:09:14;;;;;;;3.03;1.50;;;10.20;98.40;;;;;;4725719;30;20077;-82
2023/10/23 03:11:41;;;;;;;2.63;1.10;;;10.20;98.40;;;;;;4731441;30;20057;-82
2023/10/23 03:14:08;;;;;;;3.13;1.30;;;10.20;98.40;;;;;;4744547;30;20055;-82
2023/10/23 03:16:35;;;;;;;3.20;1.30;;;10.20;98.40;;;;;;4721723;30;20419;-82
2023/10/23 03:19:02;;;;;;;2.70;1.27;;;10.20;98.40;;;;;;4729150;30;20132;-82
2023/10/23 03:21:30;;;;;;;3.13;1.23;;;10.20;98.40;;;;;;4743321;30;20056;-83
2023/10/23 03:23:57;;;;;;;3.35;1.48;;;10.20;98.40;;;;;;4717591;30;20507;-84
2023/10/23 03:26:24;;;;;;;4.28;1.40;;;10.20;98.40;;;;;;4739002;30;20053;-83
2023/10/23 03:28:51;;;;;;;2.38;1.17;;;10.20;98.40;;;;;;4741734;30;20464;-83
2023/10/23 03:31:18;;;;;;;3.35;1.30;;;10.20;98.40;;;;;;4734578;30;20045;-83
2023/10/23 03:33:46;;;;;;;2.42;1.20;;;10.20;98.40;;;;;;4730788;30;20061;-83
2023/10/23 03:36:13;;;;;;;2.80;1.13;;;10.30;98.40;;;;;;4745392;30;20048;-83
2023/10/23 03:38:40;;;;;;;3.28;1.50;;;10.30;98.60;;;;;;4725355;30;20055;-88
2023/10/23 03:41:07;;;;;;;2.75;1.15;;;10.30;98.50;;;;;;4745392;30;20063;-87
2023/10/23 03:43:35;;;;;;;2.83;1.20;;;10.30;98.50;;;;;;4730511;30;20088;-87
2023/10/23 03:46:03;;;;;;;3.58;1.63;;;10.30;98.50;;;;;;4750935;30;20052;-87
2023/10/23 03:48:33;;;;;;;3.38;1.13;;;10.30;98.50;;;;;;4733763;30;20547;-88
2023/10/23 03:51:00;;;;;;;4.63;1.27;;;10.30;98.40;;;;;;4738903;30;20063;-87
2023/10/23 03:53:27;;;;;;;4.97;1.10;;;10.40;98.40;;;;;;4750285;30;20118;-87
2023/10/23 03:55:55;;;;;;;3.65;1.20;;;10.40;98.40;;;;;;4727209;30;20147;-87
2023/10/23 03:58:22;;;;;;;2.83;1.20;;;10.40;98.30;;;;;;4746411;30;20493;-87
2023/10/23 04:00:53;;;;;;;3.53;1.45;;;10.50;98.40;;;;;;4727270;30;20053;-87
2023/10/23 04:03:21;;;;;;;3.27;1.67;;;10.50;98.30;;;;;;4723862;30;20143;-87
2023/10/23 04:05:48;;;;;;;2.38;1.10;;;10.50;98.30;;;;;;4746626;30;20059;-87
2023/10/23 04:08:15;;;;;;;2.97;1.30;;;10.60;98.30;;;;;;4723920;30;20053;-88
2023/10/23 04:10:49;;;;;;;3.08;1.55;;;10.60;98.30;;;;;;4730757;30;20148;-87
2023/10/23 04:13:16;;;;;;;3.50;1.40;;;10.60;98.30;;;;;;4718981;30;20049;-87
2023/10/23 04:15:59;;;;;;;2.60;0.93;;;10.60;98.30;;;;;;4738905;30;20068;-87
2023/10/23 04:18:27;;;;;;;2.88;1.30;;;10.70;98.30;;;;;;4728313;30;20075;-87
2023/10/23 04:21:11;;;;;;;2.00;0.93;;;10.70;98.30;;;;;;4748150;30;20049;-87
2023/10/23 04:23:39;;;;;;;3.55;1.33;;;10.70;98.20;;;;;;4742701;30;20479;-88
2023/10/23 04:26:07;;;;;;;2.75;1.20;;;10.70;98.30;;;;;;4729814;30;20080;-87
2023/10/23 04:28:36;;;;;;;3.83;1.15;;;10.70;98.30;;;;;;4733344;30;20156;-87
2023/10/23 04:31:03;;;;;;;3.20;1.48;;;10.70;98.30;;;;;;4762522;30;20052;-87
2023/10/23 04:33:31;;;;;;;2.60;1.10;;;10.70;98.30;;;;;;4721635;30;20061;-86
2023/10/23 04:35:59;;;;;;;4.05;1.60;;;10.70;98.30;;;;;;4719615;30;20049;-87
2023/10/23 04:38:26;;;;;;;4.47;1.40;;;10.70;98.30;;;;;;4732872;30;20053;-87
2023/10/23 04:40:53;;;;;;;5.05;1.17;;;10.70;98.30;;;;;;4719535;30;20082;-87
2023/10/23 04:43:21;;;;;;;3.03;1.23;;;10.80;98.30;;;;;;4741289;30;20052;-86
2023/10/23 04:45:49;;;;;;;3.47;1.00;;;10.80;98.40;;;;;;4752693;30;20071;-87
2023/10/23 04:48:16;;;;;;;3.33;1.05;;;10.80;98.30;;;;;;4723075;30;20060;-87
2023/10/23 04:50:43;;;;;;;4.82;1.45;;;10.80;98.30;;;;;;4747021;30;20060;-87
2023/10/23 04:53:11;;;;;;;3.35;1.42;;;10.80;98.30;;;;;;4752944;30;20056;-87
2023/10/23 04:55:39;;;;;;;2.72;1.02;;;10.80;98.30;;;;;;4715749;30;20068;-87
2023/10/23 04:58:07;;;;;;;2.92;1.42;;;10.80;98.30;;;;;;4749475;30;20069;-87
2023/10/23 05:00:36;;;;;;;2.42;1.15;;;10.90;98.40;;;;;;4742137;30;20072;-87
2023/10/23 05:03:03;;;;;;;2.45;1.05;;;10.90;98.40;;;;;;4751170;30;20119;-87
2023/10/23 05:05:35;;;;;;;3.80;1.30;;;10.90;98.40;;;;;;4728605;30;20048;-87
2023/10/23 05:08:04;;;;;;;2.60;1.10;;;10.80;98.40;;;;;;4737225;30;20464;-87
2023/10/23 05:10:31;;;;;;;2.95;1.40;;;10.80;98.40;;;;;;4751730;30;20490;-87
2023/10/23 05:12:58;;;;;;;2.28;1.10;;;10.90;98.40;;;;;;4732232;30;20516;-87
2023/10/23 05:15:25;;;;;;;2.28;0.90;;;10.90;98.40;;;;;;4745039;30;20144;-87
2023/10/23 05:17:52;;;;;;;2.75;1.20;;;10.90;98.40;;;;;;4753220;30;20146;-86
2023/10/23 05:20:19;;;;;;;2.63;1.23;;;10.90;98.40;;;;;;4752119;30;20525;-86
2023/10/23 05:22:47;;;;;;;3.22;1.35;;;10.90;98.40;;;;;;4742275;30;20071;-87
2023/10/23 05:25:14;;;;;;;2.42;1.00;;;10.90;98.40;;;;;;4755238;30;20130;-87
2023/10/23 05:27:41;;;;;;;3.08;1.67;;;10.90;98.40;;;;;;4759145;30;20492;-87
2023/10/23 05:30:09;;;;;;;3.20;1.50;;;10.90;98.40;;;;;;4756186;30;20061;-87
2023/10/23 05:32:37;;;;;;;1.92;0.70;;;10.90;98.40;;;;;;4761966;30;20070;-87
2023/10/23 05:35:05;;;;;;;2.05;0.93;;;10.90;98.40;;;;;;4757664;30;20465;-87
2023/10/23 05:37:35;;;;;;;2.03;0.95;;;10.90;98.50;;;;;;4762503;30;20259;-86
2023/10/23 05:40:05;;;;;;;2.78;1.08;;;10.90;98.50;;;;;;4743980;30;20060;-87
2023/10/23 05:42:33;;;;;;;2.60;1.20;;;10.90;98.50;;;;;;4777382;29;20054;-87
2023/10/23 05:45:02;;;;;;;2.47;1.00;;;10.90;98.50;;;;;;4737416;30;20094;-86
2023/10/23 05:47:30;;;;;;;2.60;1.08;;;10.90;98.50;;;;;;4753803;30;20047;-87
2023/10/23 05:49:57;;;;;;;3.20;0.95;;;10.90;98.50;;;;;;4748732;30;20048;-87
2023/10/23 05:52:24;;;;;;;2.22;0.90;;;10.90;98.50;;;;;;4761321;30;20047;-87
2023/10/23 05:54:51;;;;;;;1.73;0.77;;;10.90;98.50;;;;;;4768515;30;20082;-86
2023/10/23 05:57:18;;;;;;;2.55;1.00;;;10.90;98.60;;;;;;4738299;30;20087;-87
2023/10/23 05:59:45;;;;;;;3.22;1.25;;;10.90;98.50;;;;;;4754979;30;20056;-87
2023/10/23 06:02:12;;;;;;;2.30;1.00;;;10.90;98.60;;;;;;4755499;30;20082;-87
2023/10/23 06:04:44;;;;;;;2.45;0.80;;;10.90;98.60;;;;;;4757916;30;20054;-86
2023/10/23 06:07:12;;;;;;;1.63;0.68;;;10.90;98.60;;;;;;4761767;30;20060;-87
2023/10/23 06:09:42;;;;;;;2.40;0.90;;;10.90;98.60;;;;;;4760048;30;20254;-86
2023/10/23 06:12:11;;;;;;;2.45;1.08;;;10.90;98.60;;;;;;4738360;30;20550;-87
2023/10/23 06:14:38;;;;;;;2.25;0.95;;;10.90;98.60;;;;;;4739782;30;20083;-86
2023/10/23 06:17:05;;;;;;;2.95;1.20;;;10.90;98.60;;;;;;4730395;30;20510;-87
2023/10/23 06:19:33;;;;;;;2.83;1.38;;;10.90;98.60;;;;;;4725860;30;20053;-87
2023/10/23 06:22:00;;;;;;;4.30;1.05;;;10.90;98.60;;;;;;4743870;30;20151;-87
2023/10/23 06:24:27;;;;;;;3.03;1.30;;;10.90;98.60;;;;;;4717086;30;20181;-87
2023/10/23 06:26:54;;;;;;;4.30;1.30;;;10.90;98.60;;;;;;4732179;30;20085;-87
2023/10/23 06:29:22;;;;;;;2.65;1.13;;;10.90;98.60;;;;;;4728618;30;20049;-87
2023/10/23 06:31:49;;;;;;;2.72;1.20;;;10.90;98.60;;;;;;4731182;30;20061;-87
2023/10/23 06:34:16;;;;;;;4.53;1.58;;;10.90;98.60;;;;;;4736430;30;20048;-87
2023/10/23 06:36:43;;;;;;;2.30;0.90;;;10.90;98.60;;;;;;4736796;30;20561;-87
2023/10/23 06:39:12;;;;;;;2.80;1.05;;;10.90;98.60;;;;;;4743923;30;20224;-86
2023/10/23 06:41:39;;;;;;;3.17;1.30;;;11.00;98.60;;;;;;4746765;30;20052;-86
2023/10/23 06:44:09;;;;;;;3.95;1.40;;;11.00;98.60;;;;;;4738111;30;20410;-87
2023/10/23 06:46:36;;;;;;;3.97;1.25;;;11.00;98.60;;;;;;4723976;30;20055;-87
2023/10/23 06:49:04;;;;;;;5.68;2.00;;;11.00;98.60;;;;;;4731941;30;20403;-87
2023/10/23 06:51:31;;;;;;;4.45;2.00;;;11.00;98.60;;;;;;4710522;30;20053;-87
2023/10/23 06:53:58;;;;;;;6.60;2.25;;;11.00;98.60;;;;;;4752852;30;20410;-87
2023/10/23 06:56:25;;;;;;;3.55;1.30;;;11.00;98.60;;;;;;4737629;30;20056;-87
2023/10/23 06:58:52;;;;;;;4.80;1.85;;;11.00;98.60;;;;;;4740725;30;20143;-87
2023/10/23 07:01:20;;;;;;;4.43;1.40;;;11.00;98.60;;;;;;4751317;30;20395;-87
2023/10/23 07:04:04;;;;;;;3.20;1.25;;;11.00;98.60;;;;;;4721537;30;20053;-87
2023/10/23 07:06:31;;;;;;;3.20;1.35;;;11.00;98.60;;;;;;4707441;30;20590;-86
2023/10/23 07:08:59;;;;;;;4.72;1.75;;;11.00;98.60;;;;;;4758062;30;20147;-87
2023/10/23 07:11:26;;;;;;;3.28;1.50;;;11.10;98.60;;;;;;4743780;30;20065;-87
2023/10/23 07:13:53;;;;;;;3.47;1.63;;;11.10;98.60;;;;;;4714859;30;20147;-87
2023/10/23 07:16:20;;;;;;;5.03;1.35;;;11.10;98.60;;;;;;4733404;30;20429;-86
2023/10/23 07:18:48;;;;;;;3.38;1.13;;;11.10;98.60;;;;;;4722611;30;20088;-86
2023/10/23 07:21:15;;;;;;;4.00;1.38;;;11.10;98.60;;;;;;4743169;30;20045;-87
2023/10/23 07:23:42;;;;;;;5.85;1.65;;;11.10;98.50;;;;;;4740543;30;20056;-86
2023/10/23 07:26:12;;;;;;;2.40;1.30;;;11.10;98.50;;;;;;4754583;30;20537;-86
2023/10/23 07:28:41;;;;;;;5.70;1.63;;;11.10;98.60;;;;;;4754963;30;20118;-87
2023/10/23 07:31:09;;;;;;;2.65;1.13;;;11.00;98.50;;;;;;4748741;30;20048;-86
2023/10/23 07:33:36;;;;;;;3.83;1.50;;;11.10;98.60;;;;;;4726342;30;20056;-88
2023/10/23 07:36:05;;;;;;;4.28;1.45;;;11.00;98.50;;;;;;4741797;30;20052;-88
2023/10/23 07:38:33;;;;;;;5.25;1.65;;;11.10;98.60;;;;;;4754566;30;20162;-88
2023/10/23 07:41:00;;;;;;;3.90;1.65;;;11.10;98.50;;;;;;4742198;30;20055;-88
2023/10/23 07:43:28;;;;;;;3.15;1.63;;;11.10;98.50;;;;;;4733738;30;20498;-89
2023/10/23 07:45:56;;;;;;;3.17;1.63;;;11.10;98.50;;;;;;4736884;30;20115;-89
2023/10/23 07:48:42;;;;;;;3.35;1.50;;;11.10;98.50;;;;;;4739205;30;20156;-88
2023/10/23 07:51:09;;;;;;;2.55;1.40;;;11.10;98.50;;;;;;4752667;30;20056;-86
2023/10/23 07:53:36;;;;;;;3.35;1.35;;;11.10;98.50;;;;;;4740058;30;20072;-86
2023/10/23 07:56:04;;;;;;;3.33;1.40;;;11.20;98.50;;;;;;4744001;30;20136;-87
2023/10/23 07:58:32;;;;;;;3.95;1.42;;;11.20;98.50;;;;;;4720006;30;20459;-88
2023/10/23 08:01:04;;;;;;;4.18;1.33;;;11.20;98.50;;;;;;4730867;30;20045;-87
2023/10/23 08:03:35;;;;;;;3.13;1.38;;;11.30;98.40;;;;;;4739379;30;20060;-88
2023/10/23 08:06:10;;;;;;;5.60;2.55;;;11.30;98.40;;;;;;4741561;30;20410;-89
2023/10/23 08:08:39;;;;;;;5.53;2.40;;;11.30;98.40;;;;;;4735307;30;20091;-88
2023/10/23 08:11:09;;;;;;;3.83;2.05;;;11.30;98.30;;;;;;4742344;30;20568;-88
2023/10/23 08:13:40;;;;;;;4.80;2.40;;;11.30;98.30;;;;;;4734470;30;20053;-91
2023/10/23 08:16:07;;;;;;;4.85;2.42;;;11.40;98.30;;;;;;4729757;30;20065;-91
2023/10/23 08:18:38;;;;;;;4.75;2.30;;;11.40;98.30;;;;;;4773574;29;20072;-89
2023/10/23 08:21:13;;;;;;;5.38;2.50;;;11.40;98.30;;;;;;4765255;30;20048;-91
2023/10/23 08:24:01;;;;;;;4.95;2.33;;;11.50;98.30;;;;;;4766726;30;20060;-91
2023/10/23 08:26:29;;;;;;;4.45;2.13;;;11.40;98.30;;;;;;4760183;30;20144;-90
2023/10/23 08:28:59;;;;;;;6.80;2.88;;;11.50;98.30;;;;;;4760646;30;20052;-90
2023/10/23 08:31:32;;;;;;;5.60;2.40;;;11.40;98.20;;;;;;4738915;30;20502;-90
2023/10/23 08:34:07;;;;;;;4.50;2.22;;;11.40;98.20;;;;;;4750071;30;20056;-90
2023/10/23 08:36:54;;;;;;;4.05;2.20;;;11.40;98.30;;;;;;4740086;30;20458;-91
2023/10/23 08:39:25;;;;;;;4.53;2.17;;;11.40;98.30;;;;;;4744838;30;20120;-91
2023/10/23 08:42:05;;;;;;;3.05;1.25;;;11.30;98.30;;;;;;4760514;30;20080;-90
2023/10/23 08:44:36;;;;;;;3.67;1.73;;;11.30;98.30;;;;;;4765756;30;20044;-91
2023/10/23 08:47:13;;;;;;;6.20;1.95;;;11.30;98.30;;;;;;4743353;30;20095;-91
2023/10/23 08:49:52;;;;;;;3.97;2.10;;;11.40;98.30;;;;;;4757447;30;20053;-91
2023/10/23 08:52:23;;;;;;;3.80;2.00;;;11.40;98.30;;;;;;4742373;30;20084;-88
2023/10/23 08:54:56;;;;;;;6.57;2.17;;;11.40;98.30;;;;;;4745169;30;20060;-90
2023/10/23 08:57:24;;;;;;;5.28;2.17;;;11.40;98.30;;;;;;4764077;30;20414;-90
2023/10/23 08:59:51;;;;;;;3.63;1.70;;;11.40;98.20;;;;;;4739914;30;20479;-90
2023/10/23 09:02:19;;;;;;;3.47;1.77;;;11.40;98.20;;;;;;4750804;30;20053;-90
2023/10/23 09:04:46;;;;;;;4.03;1.73;;;11.50;98.20;;;;;;4723696;30;20052;-89
2023/10/23 09:07:16;;;;;;;3.88;1.92;;;11.50;98.20;;;;;;4721092;30;20109;-88
2023/10/23 09:09:44;;;;;;;4.45;2.15;;;11.60;98.10;;;;;;4753279;30;20044;-89
2023/10/23 09:12:30;;;;;;;4.57;2.08;;;11.60;98.20;;;;;;4767032;30;20131;-88
2023/10/23 09:15:16;;;;;;;4.10;1.63;;;11.60;98.10;;;;;;4735923;30;20065;-89
2023/10/23 09:17:44;;;;;;;4.15;1.92;;;11.70;98.10;;;;;;4753097;30;20155;-87
2023/10/23 09:20:23;;;;;;;3.90;2.05;;;11.70;98.10;;;;;;4739520;30;20056;-85
2023/10/23 09:22:55;;;;;;;5.30;2.20;;;11.80;98.00;;;;;;4755271;30;20103;-81
2023/10/23 09:25:23;;;;;;;6.15;2.60;;;11.70;98.00;;;;;;4732229;30;20414;-81
2023/10/23 09:27:51;;;;;;;5.20;2.65;;;11.80;98.00;;;;;;4742069;30;20046;-82
2023/10/23 09:30:22;;;;;;;5.82;3.00;;;11.90;97.90;;;;;;4743185;30;20120;-82
2023/10/23 09:32:51;;;;;;;6.38;3.22;;;11.90;97.90;;;;;;4736522;30;20144;-79
2023/10/23 09:35:19;;;;;;;4.78;2.92;;;11.90;97.90;;;;;;4709898;30;20508;-80
2023/10/23 09:37:46;;;;;;;5.45;2.65;;;11.90;97.90;;;;;;4736670;30;20053;-80
2023/10/23 09:40:14;;;;;;;5.55;2.85;;;12.00;97.90;;;;;;4744946;30;20070;-80
2023/10/23 09:42:41;;;;;;;5.43;2.40;;;12.00;97.90;;;;;;4739429;30;20076;-80
2023/10/23 09:45:09;;;;;;;7.03;3.00;;;12.10;97.80;;;;;;4736960;30;20520;-80
2023/10/23 09:47:37;;;;;;;5.80;3.03;;;12.20;97.80;;;;;;4731933;30;20113;-79
2023/10/23 09:50:05;;;;;;;4.72;2.58;;;12.30;97.70;;;;;;4734663;30;20048;-80
2023/10/23 09:52:34;;;;;;;6.82;2.55;;;12.40;97.60;;;;;;4727189;30;20080;-81
2023/10/23 09:55:08;;;;;;;5.97;3.90;;;12.50;97.60;;;;;;4745556;30;20451;-81
2023/10/23 09:57:40;;;;;;;6.65;3.47;;;12.60;97.50;;;;;;4724192;30;20061;-83
2023/10/23 10:00:16;;;;;;;6.88;3.05;;;12.60;97.40;;;;;;4718162;30;20060;-80
2023/10/23 10:02:48;;;;;;;5.95;3.35;;;12.70;97.40;;;;;;4756352;30;20566;-82
2023/10/23 10:05:27;;;;;;;4.40;2.78;;;12.70;97.40;;;;;;4723684;30;20063;-83
2023/10/23 10:08:13;;;;;;;6.43;2.63;;;12.80;97.40;;;;;;4759354;30;20127;-82
2023/10/23 10:10:40;;;;;;;3.88;2.28;;;12.80;97.40;;;;;;4748376;30;20498;-81
2023/10/23 10:13:09;;;;;;;4.50;2.72;;;12.80;97.30;;;;;;4722665;30;20060;-82
2023/10/23 10:15:38;;;;;;;4.45;2.45;;;12.80;97.30;;;;;;4754107;30;20065;-81
2023/10/23 10:18:05;;;;;;;5.57;2.60;;;12.90;97.30;;;;;;4734574;30;20063;-81
2023/10/23 10:20:34;;;;;;;5.63;3.15;;;12.90;97.30;;;;;;4718768;30;20473;-79
2023/10/23 10:23:04;;;;;;;4.20;2.60;;;13.00;97.30;;;;;;4756682;30;20053;-80
2023/10/23 10:25:32;;;;;;;7.57;3.40;;;13.00;97.20;;;;;;4735688;30;20135;-79
2023/10/23 10:28:03;;;;;;;6.28;2.97;;;13.10;97.20;;;;;;4719274;30;20053;-84
2023/10/23 10:30:42;;;;;;;5.32;2.72;;;13.10;97.10;;;;;;4746873;30;20048;-84
2023/10/23 10:33:30;;;;;;;6.65;2.78;;;13.20;97.10;;;;;;4735796;30;20104;-85
2023/10/23 10:36:28;;;;;;;4.50;2.47;;;13.20;97.10;;;;;;4730835;30;20121;-87
2023/10/23 10:39:17;;;;;;;4.13;1.70;;;13.20;97.10;;;;;;4719976;30;20059;-84
2023/10/23 10:41:45;;;;;;;4.93;2.42;;;13.30;97.10;;;;;;4743526;30;20110;-86
2023/10/23 10:44:19;;;;;;;4.93;2.33;;;13.40;97.00;;;;;;4729478;30;20056;-83
2023/10/23 10:46:49;;;;;;;5.85;2.70;;;13.40;97.00;;;;;;4734409;30;20056;-83
2023/10/23 10:49:21;;;;;;;4.78;2.13;;;13.50;96.90;;;;;;4744647;30;20052;-83
2023/10/23 10:51:48;;;;;;;5.63;3.22;;;13.60;96.90;;;;;;4739048;30;20115;-81
2023/10/23 10:54:15;;;;;;;4.88;3.08;;;13.60;96.80;;;;;;4732108;30;20052;-82
2023/10/23 10:56:44;;;;;;;6.75;3.25;;;13.70;96.80;;;;;;4731584;30;20069;-81
2023/10/23 10:59:11;;;;;;;5.53;3.30;;;13.70;96.80;;;;;;4727704;30;20057;-81
2023/10/23 11:01:38;;;;;;;6.85;3.40;;;13.70;96.70;;;;;;4736637;30;20113;-81
2023/10/23 11:04:05;;;;;;;8.68;3.10;;;13.70;96.70;;;;;;4753636;30;20040;-80
2023/10/23 11:06:33;;;;;;;4.82;2.90;;;13.80;96.70;;;;;;4724697;30;20054;-83
2023/10/23 11:09:00;;;;;;;7.82;2.78;;;13.80;96.70;;;;;;4745546;30;20057;-83
2023/10/23 11:11:27;;;;;;;7.15;3.28;;;13.90;96.70;;;;;;4733112;30;20049;-82
2023/10/23 11:13:55;;;;;;;5.93;3.25;;;13.90;96.60;;;;;;4738002;30;20151;-85
2023/10/23 11:16:32;;;;;;;8.77;3.55;;;14.00;96.60;;;;;;4727908;30;20090;-86
2023/10/23 11:19:20;;;;;;;6.40;3.78;;;14.00;96.60;;;;;;4761983;30;20473;-91
2023/10/23 11:22:15;;;;;;;8.60;4.15;;;14.00;96.60;;;;;;4773352;30;20148;-92
2023/10/23 11:24:57;;;;;;;9.70;4.20;;;14.10;96.50;;;;;;4751892;30;20052;-92
2023/10/23 11:27:51;;;;;;;8.85;4.15;;;14.10;96.50;;;;;;4717652;30;20139;-90
2023/10/23 11:30:38;;;;;;;8.20;4.72;;;14.20;96.50;;;;;;4762891;30;20144;-90
2023/10/23 11:33:31;;;;;;;10.13;5.50;;;14.20;96.40;;;;;;4764170;30;20139;-91
2023/10/23 11:36:06;;;;;;;6.88;3.85;;;14.20;96.30;;;;;;4758280;30;20079;-85
2023/10/23 11:38:41;;;;;;;9.07;5.07;;;14.20;96.40;;;;;;4762390;30;20059;-85
2023/10/23 11:41:13;;;;;;;8.25;5.57;;;14.30;96.30;;;;;;4751094;30;20456;-90
2023/10/23 11:43:51;;;;;;;9.07;5.40;;;14.30;96.30;;;;;;4760867;30;20491;-92
2023/10/23 11:46:25;;;;;;;10.80;4.72;;;14.40;96.30;;;;;;4761191;30;20424;-90
2023/10/23 11:49:00;;;;;;;7.30;4.60;;;14.50;96.30;;;;;;4772930;30;20048;-90
2023/10/23 11:51:33;;;;;;;7.75;4.75;;;14.50;96.20;;;;;;4747856;30;20064;-89
2023/10/23 11:54:03;;;;;;;9.40;5.35;;;14.50;96.10;;;;;;4772867;30;20076;-88
2023/10/23 11:56:35;;;;;;;9.38;4.85;;;14.50;96.10;;;;;;4756169;30;20083;-90
2023/10/23 11:59:04;;;;;;;7.63;4.25;;;14.50;96.10;;;;;;4767409;30;20075;-89
2023/10/23 12:01:31;;;;;;;7.50;4.35;;;14.50;96.10;;;;;;4772279;30;20056;-84
2023/10/23 12:04:01;;;;;;;8.48;3.75;;;14.50;96.20;;;;;;4786823;29;20109;-85
2023/10/23 12:06:28;;;;;;;8.43;3.38;;;14.50;96.20;;;;;;4745167;30;20485;-84
2023/10/23 12:08:56;;;;;;;6.22;2.85;;;14.50;96.10;;;;;;4747972;30;20106;-84
2023/10/23 12:11:25;;;;;;;7.30;2.17;;;14.60;96.10;;;;;;4748276;30;20052;-83
2023/10/23 12:13:52;;;;;;;5.30;2.33;;;14.60;96.10;;;;;;4754480;30;20381;-84
2023/10/23 12:16:19;;;;;;;4.80;2.03;;;14.60;96.00;;;;;;4739556;30;20399;-84
2023/10/23 12:18:46;;;;;;;5.25;2.17;;;14.60;96.00;;;;;;4750197;30;20074;-85
2023/10/23 12:21:14;;;;;;;4.40;2.08;;;14.70;95.90;;;;;;4739509;30;20452;-84
2023/10/23 12:23:44;;;;;;;6.68;3.67;;;14.70;95.90;;;;;;4738077;30;20053;-84
2023/10/23 12:30:31;;;;;;;5.47;1.33;;;14.80;95.80;;;;;;4736921;30;20029;-87
2023/10/23 12:33:13;;;;;;;2.90;1.48;;;14.80;95.70;;;;;;4720703;30;20061;-86
2023/10/23 12:35:52;;;;;;;4.43;2.10;;;14.80;95.80;;;;;;4731940;30;20062;-85
2023/10/23 12:38:19;;;;;;;4.20;1.92;;;14.80;95.70;;;;;;4759698;30;20155;-83
2023/10/23 12:40:48;;;;;;;4.68;1.35;;;14.80;95.70;;;;;;4737875;30;20088;-82
2023/10/23 12:43:15;;;;;;;4.68;1.52;;;14.80;95.70;;;;;;4704028;30;20053;-87
2023/10/23 12:45:43;;;;;;;3.28;1.40;;;14.80;95.70;;;;;;4718219;30;20049;-86
2023/10/23 12:48:10;;;;;;;4.93;1.27;;;14.80;95.70;;;;;;4735502;30;20049;-85
2023/10/23 12:50:38;;;;;;;4.40;1.50;;;14.90;95.70;;;;;;4727414;30;20066;-85
2023/10/23 12:53:05;;;;;;;4.95;1.30;;;14.90;95.60;;;;;;4735574;30;20053;-84
2023/10/23 12:55:33;;;;;;;3.47;0.93;;;14.90;95.60;;;;;;4750065;30;20137;-83
2023/10/23 12:58:02;;;;;;;3.28;1.25;;;14.90;95.60;;;;;;4739554;30;20151;-85
2023/10/23 13:00:29;;;;;;;4.78;1.20;;;14.90;95.60;;;;;;4723773;30;20062;-89
2023/10/23 13:02:56;;;;;;;4.15;1.30;;;15.00;95.60;;;;;;4746298;30;20056;-82
2023/10/23 13:05:24;;;;;;;3.50;0.90;;;15.00;95.50;;;;;;4732190;30;20081;-82